Time;durP1;ratioP1;P1;durP2;ratioP2;P2;SDS_P1;SDS_P2;PMS_P1;PMS_P2;Temp;Humidity;BMP_temperature;BMP_pressure;BME280_temperature;BME280_humidity;BME280_pressure;Samples;Min_cycle;Max_cycle;Signal;HPM_P1;HPM_P2
2022/09/27 00:02:28;;;;;;;0.10;0.10;;;;;;;8.14;100.00;94583.28;4965911;28;20049;-75
2022/09/27 00:05:15;;;;;;;0.10;0.10;;;;;;;8.23;100.00;94580.81;4968645;28;20050;-75
2022/09/27 00:08:01;;;;;;;0.10;0.10;;;;;;;8.23;100.00;94581.63;4968381;28;20046;-75
2022/09/27 00:10:58;;;;;;;0.10;0.10;;;;;;;8.26;100.00;94574.97;4968437;28;20442;-75
2022/09/27 00:13:44;;;;;;;0.10;0.10;;;;;;;8.26;100.00;94583.75;4959315;28;20550;-75
2022/09/27 00:16:32;;;;;;;0.10;0.10;;;;;;;8.24;100.00;94577.88;4959331;28;20632;-76
2022/09/27 00:19:21;;;;;;;0.10;0.10;;;;;;;8.23;100.00;94586.16;4969513;28;20132;-76
2022/09/27 00:22:07;;;;;;;0.10;0.10;;;;;;;8.20;100.00;94576.88;4970097;28;20398;-76
2022/09/27 00:24:53;;;;;;;0.00;0.00;;;;;;;8.16;100.00;94580.34;4969542;28;20038;-76
2022/09/27 00:27:39;;;;;;;0.13;0.13;;;;;;;8.14;100.00;94572.63;4969413;28;20049;-76
2022/09/27 00:30:25;;;;;;;0.10;0.10;;;;;;;8.17;100.00;94569.44;4956206;28;20039;-76
2022/09/27 00:33:11;;;;;;;0.10;0.10;;;;;;;8.21;100.00;94572.31;4955062;28;20035;-76
2022/09/27 00:36:05;;;;;;;0.10;0.10;;;;;;;8.15;100.00;94568.09;4968708;28;20045;-76
2022/09/27 00:38:52;;;;;;;0.10;0.10;;;;;;;8.16;100.00;94569.69;4958893;28;20092;-75
2022/09/27 00:41:38;;;;;;;0.10;0.10;;;;;;;8.17;100.00;94581.94;4967521;28;20476;-75
2022/09/27 00:44:24;;;;;;;0.10;0.10;;;;;;;8.09;100.00;94570.81;4967586;28;20049;-76
2022/09/27 00:47:13;;;;;;;0.10;0.10;;;;;;;8.05;100.00;94575.09;4968365;28;20061;-75
2022/09/27 00:50:20;;;;;;;0.10;0.10;;;;;;;8.07;100.00;94567.63;4970128;28;20078;-75
2022/09/27 00:53:22;;;;;;;0.10;0.10;;;;;;;8.03;100.00;94563.16;4957444;28;20045;-75
2022/09/27 00:56:14;;;;;;;0.10;0.10;;;;;;;7.98;100.00;94574.63;4968986;28;20343;-76
2022/09/27 00:59:10;;;;;;;0.10;0.10;;;;;;;7.95;100.00;94567.19;4955404;28;20046;-75
2022/09/27 01:01:56;;;;;;;0.10;0.10;;;;;;;7.96;100.00;94557.34;4966807;28;20088;-75
2022/09/27 01:04:46;;;;;;;0.10;0.10;;;;;;;7.94;100.00;94557.63;4952753;28;20512;-75
2022/09/27 01:07:33;;;;;;;0.08;0.08;;;;;;;7.91;100.00;94552.84;4969847;28;20592;-75
2022/09/27 01:10:21;;;;;;;0.10;0.10;;;;;;;7.95;100.00;94556.53;4952253;28;20664;-75
2022/09/27 01:13:16;;;;;;;0.10;0.10;;;;;;;7.94;100.00;94562.16;4956105;28;20050;-76
2022/09/27 01:16:31;;;;;;;0.28;0.10;;;;;;;7.96;100.00;94558.13;4973226;28;20445;-76
2022/09/27 01:19:44;;;;;;;0.10;0.10;;;;;;;7.95;100.00;94569.84;4962585;28;20103;-76
2022/09/27 01:22:56;;;;;;;0.10;0.10;;;;;;;7.98;100.00;94563.19;4961842;28;20102;-76
2022/09/27 01:25:57;;;;;;;0.10;0.10;;;;;;;7.94;100.00;94568.28;4929911;28;20122;-76
2022/09/27 01:29:01;;;;;;;0.10;0.10;;;;;;;7.92;100.00;94565.06;4952088;28;20042;-75
2022/09/27 01:32:06;;;;;;;0.10;0.10;;;;;;;7.90;100.00;94569.88;4952609;28;20054;-75
2022/09/27 01:35:06;;;;;;;0.10;0.10;;;;;;;7.79;100.00;94592.34;4967688;28;20043;-75
2022/09/27 01:38:21;;;;;;;0.15;0.10;;;;;;;7.68;100.00;94572.16;4958783;28;20039;-75
2022/09/27 01:41:34;;;;;;;0.10;0.10;;;;;;;7.55;100.00;94573.56;4955406;28;20049;-76
2022/09/27 01:44:57;;;;;;;0.10;0.10;;;;;;;7.51;100.00;94575.97;4967451;28;20096;-76
2022/09/27 01:47:53;;;;;;;0.10;0.10;;;;;;;7.48;100.00;94579.19;4967803;28;20189;-76
2022/09/27 01:51:14;;;;;;;0.10;0.10;;;;;;;7.48;100.00;94576.53;4968511;28;20070;-75
2022/09/27 01:54:03;;;;;;;0.10;0.10;;;;;;;7.50;100.00;94573.59;4968001;28;20050;-76
2022/09/27 01:57:09;;;;;;;0.00;0.00;;;;;;;7.46;100.00;94576.00;4966053;28;20039;-76
2022/09/27 02:00:03;;;;;;;0.10;0.10;;;;;;;7.46;100.00;94586.63;4953679;28;20042;-76
2022/09/27 02:03:15;;;;;;;0.10;0.10;;;;;;;7.40;100.00;94593.06;4967713;28;20366;-76
2022/09/27 02:06:42;;;;;;;0.10;0.10;;;;;;;7.39;100.00;94596.81;4966254;28;20061;-76
2022/09/27 02:09:48;;;;;;;0.10;0.10;;;;;;;7.31;100.00;94588.56;4965829;28;20576;-75
2022/09/27 02:12:48;;;;;;;0.10;0.10;;;;;;;7.30;100.00;94593.09;4966069;28;20154;-75
2022/09/27 02:15:50;;;;;;;0.10;0.10;;;;;;;7.21;100.00;94594.75;4958232;28;20576;-75
2022/09/27 02:19:04;;;;;;;0.10;0.10;;;;;;;7.17;100.00;94596.38;4953360;28;20049;-75
2022/09/27 02:22:14;;;;;;;0.10;0.10;;;;;;;7.08;100.00;94605.94;4955027;28;20043;-75
2022/09/27 02:25:29;;;;;;;0.00;0.00;;;;;;;7.04;100.00;94610.22;4965071;28;20445;-75
2022/09/27 02:28:41;;;;;;;0.00;0.00;;;;;;;7.01;100.00;94602.81;4941496;28;20058;-75
2022/09/27 02:31:29;;;;;;;0.10;0.10;;;;;;;6.95;100.00;94613.44;4951387;28;20548;-75
2022/09/27 02:34:27;;;;;;;0.10;0.10;;;;;;;6.96;100.00;94603.59;4951416;28;20066;-75
2022/09/27 02:37:13;;;;;;;0.10;0.10;;;;;;;6.98;100.00;94612.09;4953193;28;20171;-75
2022/09/27 02:39:59;;;;;;;0.10;0.10;;;;;;;6.94;100.00;94616.38;4970369;28;20433;-76
2022/09/27 02:42:45;;;;;;;0.10;0.10;;;;;;;6.96;100.00;94622.22;4954610;28;20046;-75
2022/09/27 02:45:48;;;;;;;0.10;0.10;;;;;;;6.94;100.00;94619.84;4961581;28;20108;-75
2022/09/27 02:48:40;;;;;;;0.10;0.10;;;;;;;6.94;100.00;94625.16;4965789;28;20565;-75
2022/09/27 02:51:36;;;;;;;0.10;0.10;;;;;;;6.96;100.00;94631.00;4950580;28;20050;-75
2022/09/27 02:54:49;;;;;;;0.20;0.20;;;;;;;6.96;100.00;94636.31;4971775;28;20046;-74
2022/09/27 02:58:31;;;;;;;0.10;0.10;;;;;;;6.98;100.00;94636.81;4963774;28;20047;-75
2022/09/27 03:01:40;;;;;;;0.10;0.10;;;;;;;6.98;100.00;94630.72;4958290;28;20043;-74
2022/09/27 03:04:42;;;;;;;0.10;0.10;;;;;;;7.00;100.00;94633.91;4970129;28;20053;-75
2022/09/27 03:07:29;;;;;;;0.10;0.10;;;;;;;6.96;100.00;94640.84;4969549;28;20034;-75
2022/09/27 03:10:23;;;;;;;0.10;0.10;;;;;;;6.94;100.00;94633.13;4957527;28;20506;-75
2022/09/27 03:13:09;;;;;;;0.10;0.10;;;;;;;6.94;100.00;94633.13;4956562;28;20570;-75
2022/09/27 03:15:55;;;;;;;0.10;0.10;;;;;;;6.92;100.00;94624.59;4970598;28;20053;-75
2022/09/27 03:19:00;;;;;;;0.20;0.10;;;;;;;6.94;100.00;94630.47;4971409;28;20136;-75
2022/09/27 03:22:04;;;;;;;0.10;0.10;;;;;;;6.94;100.00;94630.47;4967727;28;20043;-77
2022/09/27 03:24:51;;;;;;;0.10;0.10;;;;;;;6.95;100.00;94642.69;4955943;28;21203;-76
2022/09/27 03:27:37;;;;;;;0.10;0.10;;;;;;;7.02;100.00;94641.63;4968150;28;20061;-75
2022/09/27 03:30:23;;;;;;;0.10;0.10;;;;;;;6.96;100.00;94659.44;4966414;28;20141;-75
2022/09/27 03:33:09;;;;;;;0.10;0.10;;;;;;;6.94;100.00;94635.78;4958194;28;20034;-75
2022/09/27 03:35:59;;;;;;;0.00;0.00;;;;;;;6.99;100.00;94646.41;4968089;28;20837;-75
2022/09/27 03:38:44;;;;;;;0.10;0.10;;;;;;;6.94;100.00;94632.34;4955377;28;20129;-75
2022/09/27 03:41:35;;;;;;;0.10;0.10;;;;;;;6.95;100.00;94640.03;4967819;28;20291;-76
2022/09/27 03:44:21;;;;;;;0.10;0.10;;;;;;;6.88;100.00;94639.53;4971246;28;20121;-75
2022/09/27 03:47:07;;;;;;;0.00;0.00;;;;;;;6.93;100.00;94644.84;4955456;28;20285;-75
2022/09/27 03:49:53;;;;;;;0.10;0.10;;;;;;;6.85;100.00;94634.75;4953164;28;20066;-75
2022/09/27 03:52:41;;;;;;;0.00;0.00;;;;;;;6.85;100.00;94652.56;4956553;28;20087;-75
2022/09/27 03:55:27;;;;;;;0.10;0.10;;;;;;;6.87;100.00;94647.78;4967318;28;20581;-75
2022/09/27 03:58:13;;;;;;;0.10;0.10;;;;;;;6.83;100.00;94642.19;4966723;28;20046;-75
2022/09/27 04:00:59;;;;;;;0.10;0.10;;;;;;;6.83;100.00;94647.50;4958229;28;20081;-75
2022/09/27 04:03:46;;;;;;;0.10;0.10;;;;;;;6.80;100.00;94642.72;4960660;28;20491;-75
2022/09/27 04:06:45;;;;;;;0.10;0.10;;;;;;;6.69;100.00;94644.59;4967222;28;20047;-75
2022/09/27 04:09:31;;;;;;;0.10;0.10;;;;;;;6.78;100.00;94652.03;4959889;28;20296;-75
2022/09/27 04:12:19;;;;;;;0.10;0.10;;;;;;;6.77;100.00;94647.75;4966017;28;20108;-76
2022/09/27 04:15:07;;;;;;;0.20;0.10;;;;;;;6.82;100.00;94661.84;4959724;28;20089;-76
2022/09/27 04:18:08;;;;;;;0.10;0.10;;;;;;;6.81;100.00;94654.94;4970818;28;20046;-76
2022/09/27 04:20:53;;;;;;;0.10;0.10;;;;;;;6.82;100.00;94658.41;4970060;28;20128;-76
2022/09/27 04:23:39;;;;;;;0.35;0.17;;;;;;;6.85;100.00;94657.88;4955413;28;20101;-77
2022/09/27 04:26:26;;;;;;;0.13;0.10;;;;;;;6.83;100.00;94655.47;4955601;28;20383;-76
2022/09/27 04:29:21;;;;;;;0.03;0.03;;;;;;;6.79;100.00;94659.75;4947943;28;20038;-76
2022/09/27 04:32:12;;;;;;;0.10;0.10;;;;;;;6.81;100.00;94662.13;4953695;28;20054;-76
2022/09/27 04:38:31;;;;;;;0.10;0.10;;;;;;;6.82;100.00;94653.88;4953943;28;20506;-76
2022/09/27 04:41:17;;;;;;;0.10;0.10;;;;;;;6.82;100.00;94669.84;4956429;28;20043;-76
2022/09/27 04:44:05;;;;;;;0.10;0.10;;;;;;;6.82;100.00;94680.47;4961796;28;20270;-76
2022/09/27 04:46:51;;;;;;;0.10;0.10;;;;;;;6.75;100.00;94673.81;4957441;28;20054;-76
2022/09/27 04:49:37;;;;;;;0.00;0.00;;;;;;;6.78;100.00;94681.28;4936367;28;20047;-76
2022/09/27 04:52:24;;;;;;;0.10;0.10;;;;;;;6.74;100.00;94680.22;4936369;28;20505;-76
2022/09/27 04:55:10;;;;;;;0.10;0.10;;;;;;;6.77;100.00;94677.00;4938558;28;20043;-76
2022/09/27 04:57:56;;;;;;;0.10;0.10;;;;;;;6.77;100.00;94685.81;4939760;28;20409;-76
2022/09/27 05:00:42;;;;;;;0.10;0.10;;;;;;;6.79;100.00;94677.56;4938686;28;20521;-76
2022/09/27 05:03:48;;;;;;;0.10;0.10;;;;;;;6.75;100.00;94695.88;4949057;28;20042;-78
2022/09/27 05:06:35;;;;;;;0.30;0.10;;;;;;;6.77;100.00;94685.81;4946324;28;20043;-76
2022/09/27 05:09:27;;;;;;;0.10;0.10;;;;;;;6.73;100.00;94699.88;4931353;28;20410;-74
2022/09/27 05:12:15;;;;;;;0.10;0.10;;;;;;;6.72;100.00;94700.94;4947966;28;20542;-76
2022/09/27 05:15:17;;;;;;;0.10;0.10;;;;;;;6.68;100.00;94708.66;4933912;28;20402;-75
2022/09/27 05:18:21;;;;;;;0.10;0.10;;;;;;;6.67;100.00;94707.84;4947143;28;20042;-75
2022/09/27 05:21:34;;;;;;;0.10;0.10;;;;;;;6.62;100.00;94713.19;4926623;28;20050;-75
2022/09/27 05:24:20;;;;;;;0.10;0.10;;;;;;;6.57;100.00;94720.34;4936033;28;20039;-75
2022/09/27 05:27:11;;;;;;;0.10;0.10;;;;;;;6.59;100.00;94719.00;4935019;28;20057;-75
2022/09/27 05:30:00;;;;;;;0.10;0.10;;;;;;;6.56;100.00;94727.53;4950322;28;20051;-75
2022/09/27 05:32:54;;;;;;;0.10;0.10;;;;;;;6.61;100.00;94727.50;4935092;28;20043;-74
2022/09/27 05:35:56;;;;;;;0.10;0.10;;;;;;;6.61;100.00;94730.16;4950618;28;20039;-75
2022/09/27 05:38:46;;;;;;;0.10;0.10;;;;;;;6.67;100.00;94742.41;4934177;28;20296;-75
2022/09/27 05:41:34;;;;;;;0.08;0.08;;;;;;;6.63;100.00;94745.88;4935685;28;20125;-74
2022/09/27 05:44:20;;;;;;;0.10;0.10;;;;;;;6.61;100.00;94748.78;4945868;28;20110;-74
2022/09/27 05:47:16;;;;;;;0.10;0.10;;;;;;;6.62;100.00;94749.59;4944356;28;20058;-75
2022/09/27 05:50:02;;;;;;;0.10;0.10;;;;;;;6.55;100.00;94751.72;4946414;28;20050;-75
2022/09/27 05:52:48;;;;;;;0.10;0.10;;;;;;;6.53;100.00;94751.97;4948574;28;20321;-75
2022/09/27 05:55:36;;;;;;;0.10;0.10;;;;;;;6.49;100.00;94766.84;4940054;28;20128;-75
2022/09/27 05:58:25;;;;;;;0.10;0.10;;;;;;;6.50;100.00;94763.13;4936173;28;20076;-75
2022/09/27 06:01:26;;;;;;;0.03;0.03;;;;;;;6.47;100.00;94762.88;4935612;28;20046;-75
2022/09/27 06:04:47;;;;;;;0.08;0.08;;;;;;;6.39;100.00;94772.16;4947638;28;20085;-75
2022/09/27 06:08:01;;;;;;;0.10;0.10;;;;;;;6.39;100.00;94778.25;4948261;28;20219;-75
2022/09/27 06:11:03;;;;;;;0.10;0.10;;;;;;;6.38;100.00;94775.84;4933976;28;20256;-75
2022/09/27 06:13:49;;;;;;;0.10;0.10;;;;;;;6.35;100.00;94785.16;4947737;28;20561;-75
2022/09/27 06:16:35;;;;;;;0.10;0.10;;;;;;;6.35;100.00;94787.81;4934750;28;20334;-74
2022/09/27 06:19:21;;;;;;;0.10;0.10;;;;;;;6.39;100.00;94783.56;4933155;28;20388;-75
2022/09/27 06:22:07;;;;;;;0.10;0.10;;;;;;;6.39;100.00;94788.09;4932213;28;20047;-75
2022/09/27 06:25:16;;;;;;;0.10;0.10;;;;;;;6.38;100.00;94797.09;4948180;28;20043;-75
2022/09/27 06:28:25;;;;;;;0.10;0.10;;;;;;;6.38;100.00;94803.25;4951382;28;20430;-74
2022/09/27 06:31:15;;;;;;;0.13;0.13;;;;;;;6.35;100.00;94801.09;4936515;28;20054;-75
2022/09/27 06:34:11;;;;;;;0.10;0.10;;;;;;;6.35;100.00;94810.91;4934038;28;20415;-75
2022/09/27 06:36:57;;;;;;;0.10;0.10;;;;;;;6.38;100.00;94803.25;4933267;28;20505;-74
2022/09/27 06:39:44;;;;;;;0.10;0.10;;;;;;;6.33;100.00;94797.91;4938065;28;20058;-74
2022/09/27 06:42:49;;;;;;;0.10;0.10;;;;;;;6.29;100.00;94804.78;4949722;28;20168;-75
2022/09/27 06:45:41;;;;;;;0.15;0.10;;;;;;;6.29;100.00;94815.41;4935850;28;20515;-74
2022/09/27 06:48:54;;;;;;;0.10;0.10;;;;;;;6.25;100.00;94814.34;4948406;28;20057;-75
2022/09/27 06:51:41;;;;;;;0.10;0.10;;;;;;;6.36;100.00;94818.63;4953198;28;20034;-75
2022/09/27 06:54:26;;;;;;;0.10;0.10;;;;;;;6.49;100.00;94811.22;4950734;28;20249;-75
2022/09/27 07:00:22;;;;;;;0.10;0.10;;;;;;;6.64;100.00;94811.25;4969308;28;20053;-75
2022/09/27 07:00:27;;;;;;;0.10;0.10;;;;;;;6.66;100.00;94814.44;4954050;28;20236;-75
2022/09/27 07:03:49;;;;;;;0.10;0.10;;;;;;;6.66;100.00;94815.25;4894501;29;20563;-75
2022/09/27 07:06:54;;;;;;;0.10;0.10;;;;;;;6.69;100.00;94822.72;4967928;28;20279;-75
2022/09/27 07:09:43;;;;;;;0.10;0.10;;;;;;;6.66;100.00;94836.50;4953647;28;20051;-75
2022/09/27 07:12:30;;;;;;;0.10;0.10;;;;;;;6.68;100.00;94823.75;4950273;28;20038;-75
2022/09/27 07:15:17;;;;;;;0.10;0.10;;;;;;;6.76;100.00;94833.06;4951662;28;20057;-74
2022/09/27 07:18:05;;;;;;;0.10;0.10;;;;;;;6.78;100.00;94836.28;4950916;28;20072;-75
2022/09/27 07:20:52;;;;;;;0.10;0.10;;;;;;;6.79;100.00;94831.75;4952243;28;20043;-76
2022/09/27 07:23:38;;;;;;;0.10;0.10;;;;;;;6.86;100.00;94849.06;4958459;28;20038;-75
2022/09/27 07:26:26;;;;;;;0.10;0.10;;;;;;;7.10;100.00;94827.25;4951402;28;20074;-74
2022/09/27 07:29:12;;;;;;;0.10;0.10;;;;;;;7.02;100.00;94839.22;4953307;28;20047;-76
2022/09/27 07:31:58;;;;;;;0.10;0.10;;;;;;;6.96;100.00;94833.09;4968325;28;20422;-75
2022/09/27 07:34:46;;;;;;;0.10;0.10;;;;;;;6.95;100.00;94850.13;4955930;28;20274;-75
2022/09/27 07:37:33;;;;;;;0.10;0.10;;;;;;;6.96;100.00;94856.22;4959024;28;20042;-75
2022/09/27 07:40:21;;;;;;;0.10;0.10;;;;;;;6.88;100.00;94862.06;4954970;28;20045;-75
2022/09/27 07:43:11;;;;;;;0.10;0.10;;;;;;;6.90;100.00;94868.72;4970136;28;20780;-75
2022/09/27 07:45:58;;;;;;;0.10;0.10;;;;;;;7.04;100.00;94869.00;4968954;28;20039;-75
2022/09/27 07:49:02;;;;;;;0.13;0.10;;;;;;;7.13;100.00;94864.75;4972990;28;20073;-76
2022/09/27 07:52:06;;;;;;;0.10;0.10;;;;;;;7.15;100.00;94877.78;4969948;28;20125;-76
2022/09/27 07:54:58;;;;;;;;;;;;;;;7.31;100.00;94884.72;4970455;28;20047;-76
2022/09/27 07:58:02;;;;;;;0.10;0.10;;;;;;;7.28;100.00;94879.94;4948526;28;19929;-76
2022/09/27 08:00:48;;;;;;;0.10;0.10;;;;;;;7.30;100.00;94883.13;4952654;28;20042;-77
2022/09/27 08:03:35;;;;;;;0.10;0.10;;;;;;;7.32;100.00;94881.00;4953665;28;20069;-76
2022/09/27 08:06:21;;;;;;;0.10;0.10;;;;;;;7.25;100.00;94886.59;4956427;28;20078;-76
2022/09/27 08:09:08;;;;;;;0.10;0.10;;;;;;;7.21;100.00;94898.81;4960032;28;20603;-76
2022/09/27 08:11:57;;;;;;;0.10;0.10;;;;;;;7.13;100.00;94899.34;4958782;28;20109;-76
2022/09/27 08:14:43;;;;;;;0.10;0.10;;;;;;;7.21;100.00;94901.47;4954854;28;20047;-77
2022/09/27 08:17:31;;;;;;;0.10;0.10;;;;;;;7.33;100.00;94892.44;4954570;28;20073;-76
2022/09/27 08:20:31;;;;;;;0.10;0.10;;;;;;;7.47;100.00;94896.16;4953958;28;20206;-75
2022/09/27 08:23:36;;;;;;;0.10;0.10;;;;;;;7.62;100.00;94903.34;4972717;28;20150;-75
2022/09/27 08:26:43;;;;;;;0.10;0.10;;;;;;;7.86;100.00;94895.59;4957922;28;20124;-75
2022/09/27 08:29:40;;;;;;;0.10;0.10;;;;;;;8.03;100.00;94896.13;4958075;28;20113;-75
2022/09/27 08:32:27;;;;;;;0.10;0.10;;;;;;;8.25;100.00;94898.44;4967417;28;20198;-74
2022/09/27 08:35:14;;;;;;;0.10;0.10;;;;;;;8.17;100.00;94893.66;4957118;28;20333;-75
2022/09/27 08:38:02;;;;;;;0.10;0.10;;;;;;;8.09;100.00;94893.19;4969119;28;20053;-74
2022/09/27 08:41:20;;;;;;;0.10;0.10;;;;;;;8.18;100.00;94898.75;4971804;28;20050;-75
2022/09/27 08:44:30;;;;;;;0.10;0.10;;;;;;;8.51;100.00;94901.88;4970221;28;20090;-75
2022/09/27 08:47:36;;;;;;;0.22;0.17;;;;;;;8.41;100.00;94901.91;4955456;28;20335;-75
2022/09/27 08:50:37;;;;;;;0.10;0.10;;;;;;;8.62;100.00;94908.75;4958014;28;20449;-75
2022/09/27 08:53:51;;;;;;;0.10;0.10;;;;;;;9.23;100.00;94900.41;4959335;28;20050;-75
2022/09/27 08:56:38;;;;;;;0.10;0.10;;;;;;;9.52;100.00;94903.16;4957292;28;20276;-75
2022/09/27 08:59:28;;;;;;;0.10;0.10;;;;;;;9.28;100.00;94904.94;4955714;28;20077;-75
2022/09/27 09:02:20;;;;;;;0.10;0.10;;;;;;;9.42;100.00;94908.56;4957719;28;20520;-75
2022/09/27 09:05:15;;;;;;;0.10;0.10;;;;;;;9.11;100.00;94902.63;4967474;28;20520;-75
2022/09/27 09:08:09;;;;;;;0.10;0.10;;;;;;;8.88;100.00;94907.56;4972003;28;20043;-74
2022/09/27 09:14:41;;;;;;;0.10;0.10;;;;;;;8.73;100.00;94923.63;4969453;28;20049;-76
2022/09/27 09:17:46;;;;;;;0.10;0.10;;;;;;;8.69;100.00;94921.78;4957571;28;20053;-76
2022/09/27 09:21:37;;;;;;;0.10;0.10;;;;;;;8.99;100.00;94915.50;4877529;28;20685;-76
2022/09/27 09:24:35;;;;;;;0.10;0.10;;;;;;;8.99;100.00;94904.84;4889559;28;20065;-76
2022/09/27 09:27:43;;;;;;;0.10;0.10;;;;;;;9.35;100.00;94902.75;4932445;28;20485;-77
2022/09/27 09:31:01;;;;;;;0.10;0.10;;;;;;;9.93;100.00;94898.25;4929061;28;20413;-76
2022/09/27 09:33:55;;;;;;;0.10;0.10;;;;;;;10.65;100.00;94887.59;4967224;28;20164;-77
2022/09/27 09:36:44;;;;;;;0.10;0.10;;;;;;;10.41;100.00;94890.28;4954376;28;20042;-76
2022/09/27 09:39:41;;;;;;;0.10;0.10;;;;;;;10.42;100.00;94883.06;4959341;28;20045;-76
2022/09/27 09:42:39;;;;;;;0.10;0.10;;;;;;;10.28;100.00;94891.78;4952444;28;20038;-76
2022/09/27 09:45:31;;;;;;;0.00;0.00;;;;;;;10.20;100.00;94887.03;4957905;28;20047;-76
2022/09/27 09:48:33;;;;;;;0.10;0.10;;;;;;;10.41;100.00;94881.47;4952762;28;20414;-76
2022/09/27 09:51:27;;;;;;;0.10;0.10;;;;;;;10.65;100.00;94890.28;4956254;28;20053;-76
2022/09/27 09:54:23;;;;;;;0.10;0.10;;;;;;;10.79;100.00;94895.72;4960389;28;20038;-76
2022/09/27 09:57:09;;;;;;;0.10;0.10;;;;;;;11.19;100.00;94883.66;4959445;28;20049;-76
2022/09/27 10:00:12;;;;;;;0.10;0.10;;;;;;;11.30;100.00;94878.97;4950830;28;20144;-76
2022/09/27 10:03:02;;;;;;;0.10;0.10;;;;;;;10.84;100.00;94876.94;4967738;28;20565;-76
2022/09/27 10:05:49;;;;;;;0.10;0.10;;;;;;;10.64;100.00;94866.50;4968735;28;20045;-77
2022/09/27 10:08:35;;;;;;;0.10;0.10;;;;;;;10.19;100.00;94876.59;4968014;28;20039;-76
2022/09/27 10:11:44;;;;;;;0.10;0.10;;;;;;;9.85;100.00;94877.47;4971005;28;20049;-76
2022/09/27 10:14:49;;;;;;;0.03;0.03;;;;;;;9.68;100.00;94875.22;4959687;28;20042;-76
2022/09/27 10:17:48;;;;;;;0.10;0.10;;;;;;;9.97;100.00;94877.13;4952453;28;20157;-76
2022/09/27 10:20:40;;;;;;;0.10;0.10;;;;;;;10.22;100.00;94876.88;4953010;28;20047;-76
2022/09/27 10:23:27;;;;;;;0.10;0.10;;;;;;;9.98;100.00;94878.69;4966136;28;20238;-76
2022/09/27 10:26:32;;;;;;;0.10;0.10;;;;;;;9.55;100.00;94883.88;4956389;28;20041;-76
2022/09/27 10:29:32;;;;;;;0.10;0.10;;;;;;;9.54;100.00;94887.63;4952952;28;20042;-75
2022/09/27 10:32:32;;;;;;;0.10;0.10;;;;;;;9.39;100.00;94890.41;4954811;28;20270;-76
2022/09/27 10:35:45;;;;;;;0.10;0.10;;;;;;;9.56;100.00;94885.47;4966284;28;20068;-76
2022/09/27 10:38:52;;;;;;;0.10;0.10;;;;;;;9.90;100.00;94885.47;4613091;28;10001199;-76
2022/09/27 10:41:45;;;;;;;0.00;0.00;;;;;;;10.00;100.00;94884.56;4967502;28;20069;-76
2022/09/27 10:44:39;;;;;;;0.10;0.10;;;;;;;9.90;100.00;94884.66;4960339;28;20074;-76
2022/09/27 10:47:38;;;;;;;0.10;0.10;;;;;;;10.26;100.00;94880.56;4966277;28;20084;-76
2022/09/27 10:51:00;;;;;;;0.10;0.10;;;;;;;11.48;100.00;94885.38;4960723;28;20118;-76
2022/09/27 10:54:15;;;;;;;0.10;0.10;;;;;;;13.10;100.00;94865.47;4960082;28;20053;-76
2022/09/27 10:57:17;;;;;;;0.20;0.20;;;;;;;16.30;100.00;94850.28;4958211;28;20046;-76
2022/09/27 11:00:19;;;;;;;0.10;0.10;;;;;;;15.51;100.00;94862.28;4954118;28;20038;-76
2022/09/27 11:03:15;;;;;;;0.17;0.17;;;;;;;13.85;100.00;94875.56;4955756;28;20069;-75
2022/09/27 11:06:19;;;;;;;0.10;0.10;;;;;;;12.91;100.00;94856.75;4960059;28;20051;-76
2022/09/27 11:09:17;;;;;;;0.10;0.10;;;;;;;12.58;100.00;94862.25;4969115;28;20050;-76
2022/09/27 11:12:12;;;;;;;0.10;0.10;;;;;;;12.28;100.00;94848.34;4951010;28;20544;-76
2022/09/27 11:15:01;;;;;;;0.10;0.10;;;;;;;12.16;100.00;94853.44;4960191;28;20457;-76
2022/09/27 11:18:02;;;;;;;0.10;0.10;;;;;;;12.19;100.00;94850.16;4962020;28;20074;-75
2022/09/27 11:21:15;;;;;;;0.10;0.10;;;;;;;12.14;100.00;94844.91;4964418;28;20552;-75
2022/09/27 11:24:39;;;;;;;0.10;0.10;;;;;;;10.99;100.00;94852.66;4965930;28;20538;-75
2022/09/27 11:27:53;;;;;;;0.10;0.10;;;;;;;10.51;100.00;94854.63;4960873;28;20038;-75
2022/09/27 11:31:14;;;;;;;0.10;0.10;;;;;;;10.46;100.00;94855.47;4962084;28;20050;-74
2022/09/27 11:34:27;;;;;;;0.10;0.10;;;;;;;10.32;100.00;94858.03;4950005;28;20043;-76
2022/09/27 11:37:24;;;;;;;0.10;0.10;;;;;;;10.63;100.00;94856.88;4940497;28;20054;-76
2022/09/27 11:40:27;;;;;;;0.10;0.10;;;;;;;11.80;100.00;94861.31;4959476;28;20047;-75
2022/09/27 11:43:40;;;;;;;0.10;0.10;;;;;;;11.47;100.00;94851.66;4963883;28;20449;-75
2022/09/27 11:46:36;;;;;;;0.10;0.10;;;;;;;11.13;100.00;94863.44;4971890;28;20204;-76
2022/09/27 11:49:47;;;;;;;0.10;0.10;;;;;;;10.32;100.00;94854.56;4961150;28;20089;-75
2022/09/27 11:52:42;;;;;;;0.10;0.10;;;;;;;9.71;100.00;94861.31;4956516;28;20047;-75
2022/09/27 11:55:43;;;;;;;0.10;0.10;;;;;;;9.67;100.00;94852.28;4957624;28;20058;-75
2022/09/27 11:59:03;;;;;;;0.13;0.13;;;;;;;9.92;100.00;94848.56;4971841;28;20596;-75
2022/09/27 12:02:00;;;;;;;0.10;0.10;;;;;;;10.00;100.00;94844.47;4956035;28;20038;-75
2022/09/27 12:05:01;;;;;;;0.10;0.10;;;;;;;10.19;100.00;94858.69;4957983;28;20187;-75
2022/09/27 12:08:12;;;;;;;0.10;0.10;;;;;;;10.38;100.00;94844.63;4974217;28;20051;-75
2022/09/27 12:11:15;;;;;;;0.10;0.10;;;;;;;10.75;100.00;94854.59;4961628;28;20767;-75
2022/09/27 12:14:25;;;;;;;0.10;0.10;;;;;;;11.08;100.00;94853.59;4963460;28;20493;-76
2022/09/27 12:17:15;;;;;;;0.10;0.10;;;;;;;12.41;100.00;94841.41;4971045;28;20042;-76
2022/09/27 12:20:26;;;;;;;0.10;0.10;;;;;;;12.84;100.00;94841.09;4962321;28;20043;-76
2022/09/27 12:23:24;;;;;;;0.10;0.10;;;;;;;12.20;100.00;94832.97;4970910;28;20043;-76
2022/09/27 12:26:41;;;;;;;0.10;0.10;;;;;;;12.57;100.00;94835.75;4958772;28;20156;-76
2022/09/27 12:29:33;;;;;;;0.10;0.10;;;;;;;12.25;100.00;94840.13;4975069;28;20047;-76
2022/09/27 12:32:25;;;;;;;0.10;0.10;;;;;;;11.67;100.00;94837.91;4959489;28;20050;-76
2022/09/27 12:35:12;;;;;;;0.10;0.10;;;;;;;11.32;100.00;94842.78;4972122;28;20080;-76
2022/09/27 12:38:12;;;;;;;0.10;0.10;;;;;;;11.41;100.00;94835.66;4940166;28;20051;-76
2022/09/27 12:41:01;;;;;;;0.10;0.10;;;;;;;11.05;100.00;94842.63;4958655;28;20046;-76
2022/09/27 12:43:59;;;;;;;0.10;0.10;;;;;;;11.16;100.00;94836.06;4960794;28;20054;-76
2022/09/27 12:47:35;;;;;;;0.13;0.10;;;;;;;11.40;100.00;94826.03;4958570;28;20046;-76
2022/09/27 12:50:39;;;;;;;0.10;0.10;;;;;;;12.25;100.00;94829.41;4958735;28;20047;-76
2022/09/27 12:53:31;;;;;;;0.10;0.10;;;;;;;12.74;100.00;94833.22;4959405;28;20042;-76
2022/09/27 12:56:52;;;;;;;0.10;0.10;;;;;;;12.13;100.00;94835.25;4971604;28;20039;-76
2022/09/27 13:00:03;;;;;;;0.10;0.10;;;;;;;11.97;100.00;94842.78;4941499;28;20039;-76
2022/09/27 13:03:28;;;;;;;0.10;0.10;;;;;;;12.54;100.00;94834.47;4958634;28;20101;-76
2022/09/27 13:06:25;;;;;;;0.10;0.10;;;;;;;12.37;100.00;94827.00;4960229;28;20050;-75
2022/09/27 13:09:23;;;;;;;0.10;0.10;;;;;;;14.03;100.00;94827.25;4972458;28;20093;-76
2022/09/27 13:12:15;;;;;;;0.10;0.10;;;;;;;15.51;100.00;94818.38;4950150;28;20611;-76
2022/09/27 13:15:16;;;;;;;0.10;0.10;;;;;;;14.75;100.00;94822.28;4962015;28;20046;-76
2022/09/27 13:18:05;;;;;;;0.17;0.17;;;;;;;13.64;100.00;94826.88;4955478;28;20100;-76
2022/09/27 13:20:58;;;;;;;0.10;0.10;;;;;;;12.61;100.00;94826.81;4960032;28;20496;-76
2022/09/27 13:24:39;;;;;;;0.10;0.10;;;;;;;12.02;100.00;94819.66;4957309;28;20550;-75
2022/09/27 13:27:28;;;;;;;0.10;0.10;;;;;;;11.63;100.00;94821.66;4956342;28;20700;-76
2022/09/27 13:30:23;;;;;;;0.00;0.00;;;;;;;11.06;100.00;94829.00;4953914;28;20513;-76
2022/09/27 13:33:12;;;;;;;0.10;0.10;;;;;;;10.96;100.00;94831.00;4971890;28;20050;-76
2022/09/27 13:36:15;;;;;;;0.10;0.10;;;;;;;10.76;100.00;94822.19;4941034;28;20035;-75
2022/09/27 13:39:10;;;;;;;0.10;0.10;;;;;;;10.68;100.00;94824.72;4957804;28;20152;-75
2022/09/27 13:42:34;;;;;;;0.10;0.10;;;;;;;10.61;100.00;94835.78;4971519;28;20050;-76
2022/09/27 13:45:30;;;;;;;0.10;0.10;;;;;;;10.64;100.00;94823.69;4968441;28;20046;-76
2022/09/27 13:48:25;;;;;;;0.10;0.10;;;;;;;10.62;100.00;94826.66;4958616;28;20375;-76
2022/09/27 13:51:41;;;;;;;0.10;0.10;;;;;;;10.93;100.00;94821.69;4959899;28;20074;-76
2022/09/27 13:54:40;;;;;;;0.10;0.10;;;;;;;13.30;100.00;94818.56;4971944;28;20038;-75
2022/09/27 13:57:39;;;;;;;0.10;0.10;;;;;;;16.12;100.00;94824.47;4944852;28;20053;-76
2022/09/27 14:00:42;;;;;;;0.10;0.10;;;;;;;16.80;93.22;94822.56;4954559;28;20043;-76